Karinya Fr699 — MAUA8 — position and weather

sailwx.info

Track history (hours):
 
Tides and Currents Weather Stations Pressure Air Temp Water Temp Dewpoint Dewpoint Depression Visibility Wind Speed Wind Dir Waves Ship Positions

Karinya Fr699

Last reported at 2015-Apr-15 23:22 UTC. Time now 2015-Apr-21 05:01 UTC.
Position N 58°05' W 005°58'.

Length 16 m.

MMSI: 235018981.

Date/timePositionNaut miles runAvg speedWind from/ knotsBaromVisibWave heightAir tempDewpointWater temp
2015-Apr-15 23:22N 58°05' W 005°58'3 3.4
2015-Apr-15 22:33N 58°08' W 005°58'0 0.5
2015-Apr-15 21:33N 58°07' W 005°58'2 2.5
2015-Apr-15 20:33N 58°06' W 005°54'3 2.8
2015-Apr-15 19:28N 58°05' W 005°49'  
2015-Apr-10 16:07N 58°04' W 005°45'5 0.2
2015-Apr-09 14:10N 58°07' W 005°53'2 2.9
2015-Apr-09 13:33N 58°08' W 005°56'3 2.6
2015-Apr-09 12:33N 58°10' W 005°59'2 2.4
2015-Apr-09 11:34N 58°12' W 005°59'2 2.2
2015-Apr-09 10:33N 58°15' W 005°58'2 1.5
2015-Apr-09 09:33N 58°16' W 005°57'3 2.9
2015-Apr-09 08:34N 58°13' W 005°58'3 2.9
2015-Apr-09 07:33N 58°10' W 006°00'1 0.7
2015-Apr-09 06:33N 58°11' W 005°59'3 2.8
2015-Apr-09 05:33N 58°14' W 005°58'3 2.9
2015-Apr-09 04:33N 58°17' W 005°57'3 2.7
2015-Apr-09 03:33N 58°14' W 005°60'8 7.8
2015-Apr-09 02:34N 58°07' W 006°05'1 1.3
2015-Apr-09 01:30N 58°06' W 006°07'1 0.6
2015-Apr-09 00:22N 58°05' W 006°07'1 0.8
2015-Apr-08 23:32N 58°05' W 006°07'2 0.3
2015-Apr-08 18:03N 58°06' W 006°05'1 2.8
2015-Apr-08 17:33N 58°07' W 006°03'3 2.7
2015-Apr-08 16:33N 58°09' W 005°60'3 2.8
2015-Apr-08 15:33N 58°12' W 005°59'3 2.7
2015-Apr-08 14:34N 58°15' W 005°59'1 1.1
2015-Apr-08 13:33N 58°14' W 005°58'3 2.9
2015-Apr-08 12:33N 58°11' W 005°59'2 1.8
2015-Apr-08 11:33N 58°09' W 005°57'2 2.2
2015-Apr-08 10:33N 58°10' W 005°53'3 3.0
2015-Apr-08 09:32N 58°07' W 005°53'3 2.3
2015-Apr-08 08:24N 58°07' W 005°58'2 2.4
2015-Apr-08 07:33N 58°09' W 005°57'2 2.2
2015-Apr-08 06:33N 58°10' W 005°53'3 2.6
2015-Apr-08 05:33N 58°07' W 005°53'2 2.3
2015-Apr-08 04:34N 58°07' W 005°57'2 2.1
2015-Apr-08 03:34N 58°09' W 005°58'2 2.4
2015-Apr-08 02:34N 58°07' W 005°57'2 2.3
2015-Apr-08 01:33N 58°07' W 005°53'3 2.4
2015-Apr-08 00:24N 58°10' W 005°53'2 2.3
2015-Apr-07 23:33N 58°09' W 005°57'3 2.7
2015-Apr-07 22:33N 58°07' W 005°57'2 2.2
2015-Apr-07 21:33N 58°07' W 005°53'2 2.2
2015-Apr-07 20:33N 58°09' W 005°53'2 2.2
2015-Apr-07 19:33N 58°09' W 005°57'2 1.6
2015-Apr-07 18:32N 58°08' W 005°58'3 2.7
2015-Apr-07 17:34N 58°10' W 005°55'2 2.4
2015-Apr-07 16:33N 58°08' W 005°52'3 2.5
2015-Apr-07 15:23N 58°06' W 005°56'3 2.9
2015-Apr-07 14:31N 58°08' W 005°58'2 2.5
2015-Apr-07 13:34N 58°11' W 005°60'3 2.6
2015-Apr-07 12:34N 58°13' W 005°58'3 2.6
2015-Apr-07 11:34N 58°16' W 005°57'3 2.6
2015-Apr-07 10:34N 58°18' W 005°56'7 7.1
2015-Apr-07 09:34N 58°24' W 005°48'1 1.5
2015-Apr-07 08:33N 58°24' W 005°46'  
Track history (hours):
 
Tides and Currents Weather Stations Pressure Air Temp Water Temp Dewpoint Dewpoint Depression Visibility Wind Speed Wind Dir Waves Ship Positions

Karinya Fr699

Last reported at 2015-Apr-15 23:22 UTC. Time now 2015-Apr-21 05:01 UTC.
Position N 58°05' W 005°58'.

Length 16 m.

MMSI: 235018981.

Date/timePositionNaut miles runAvg speedWind from/ knotsBaromVisibWave heightAir tempDewpointWater temp
2015-Apr-15 23:22N 58°05' W 005°58'3 3.4
2015-Apr-15 22:33N 58°08' W 005°58'0 0.5
2015-Apr-15 21:33N 58°07' W 005°58'2 2.5
2015-Apr-15 20:33N 58°06' W 005°54'3 2.8
2015-Apr-15 19:28N 58°05' W 005°49'  
2015-Apr-10 16:07N 58°04' W 005°45'5 0.2
2015-Apr-09 14:10N 58°07' W 005°53'2 2.9
2015-Apr-09 13:33N 58°08' W 005°56'3 2.6
2015-Apr-09 12:33N 58°10' W 005°59'2 2.4
2015-Apr-09 11:34N 58°12' W 005°59'2 2.2
2015-Apr-09 10:33N 58°15' W 005°58'2 1.5
2015-Apr-09 09:33N 58°16' W 005°57'3 2.9
2015-Apr-09 08:34N 58°13' W 005°58'3 2.9
2015-Apr-09 07:33N 58°10' W 006°00'1 0.7
2015-Apr-09 06:33N 58°11' W 005°59'3 2.8
2015-Apr-09 05:33N 58°14' W 005°58'3 2.9
2015-Apr-09 04:33N 58°17' W 005°57'3 2.7
2015-Apr-09 03:33N 58°14' W 005°60'8 7.8
2015-Apr-09 02:34N 58°07' W 006°05'1 1.3
2015-Apr-09 01:30N 58°06' W 006°07'1 0.6
2015-Apr-09 00:22N 58°05' W 006°07'1 0.8
2015-Apr-08 23:32N 58°05' W 006°07'2 0.3
2015-Apr-08 18:03N 58°06' W 006°05'1 2.8
2015-Apr-08 17:33N 58°07' W 006°03'3 2.7
2015-Apr-08 16:33N 58°09' W 005°60'3 2.8
2015-Apr-08 15:33N 58°12' W 005°59'3 2.7
2015-Apr-08 14:34N 58°15' W 005°59'1 1.1
2015-Apr-08 13:33N 58°14' W 005°58'3 2.9
2015-Apr-08 12:33N 58°11' W 005°59'2 1.8
2015-Apr-08 11:33N 58°09' W 005°57'2 2.2
2015-Apr-08 10:33N 58°10' W 005°53'3 3.0
2015-Apr-08 09:32N 58°07' W 005°53'3 2.3
2015-Apr-08 08:24N 58°07' W 005°58'2 2.4
2015-Apr-08 07:33N 58°09' W 005°57'2 2.2
2015-Apr-08 06:33N 58°10' W 005°53'3 2.6
2015-Apr-08 05:33N 58°07' W 005°53'2 2.3
2015-Apr-08 04:34N 58°07' W 005°57'2 2.1
2015-Apr-08 03:34N 58°09' W 005°58'2 2.4
2015-Apr-08 02:34N 58°07' W 005°57'2 2.3
2015-Apr-08 01:33N 58°07' W 005°53'3 2.4
2015-Apr-08 00:24N 58°10' W 005°53'2 2.3
2015-Apr-07 23:33N 58°09' W 005°57'3 2.7
2015-Apr-07 22:33N 58°07' W 005°57'2 2.2
2015-Apr-07 21:33N 58°07' W 005°53'2 2.2
2015-Apr-07 20:33N 58°09' W 005°53'2 2.2
2015-Apr-07 19:33N 58°09' W 005°57'2 1.6
2015-Apr-07 18:32N 58°08' W 005°58'3 2.7
2015-Apr-07 17:34N 58°10' W 005°55'2 2.4
2015-Apr-07 16:33N 58°08' W 005°52'3 2.5
2015-Apr-07 15:23N 58°06' W 005°56'3 2.9
2015-Apr-07 14:31N 58°08' W 005°58'2 2.5
2015-Apr-07 13:34N 58°11' W 005°60'3 2.6
2015-Apr-07 12:34N 58°13' W 005°58'3 2.6
2015-Apr-07 11:34N 58°16' W 005°57'3 2.6
2015-Apr-07 10:34N 58°18' W 005°56'7 7.1
2015-Apr-07 09:34N 58°24' W 005°48'1 1.5
2015-Apr-07 08:33N 58°24' W 005°46'  

Dump ship's entire track history